sensor_id;sensor_type;location;lat;lon;timestamp;P1;durP1;ratioP1;P2;durP2;ratioP2
65033;SDS011;51601;51.356;12.458;2022-08-24T00:00:29;12.27;;;7.18;;
65033;SDS011;51601;51.356;12.458;2022-08-24T00:04:43;12.57;;;7.68;;
65033;SDS011;51601;51.356;12.458;2022-08-24T00:09:00;13.02;;;7.43;;
65033;SDS011;51601;51.356;12.458;2022-08-24T00:13:16;13.03;;;7.60;;
65033;SDS011;51601;51.356;12.458;2022-08-24T00:17:30;12.48;;;7.65;;
65033;SDS011;51601;51.356;12.458;2022-08-24T00:21:45;12.98;;;7.38;;
65033;SDS011;51601;51.356;12.458;2022-08-24T00:25:59;13.13;;;8.27;;
65033;SDS011;51601;51.356;12.458;2022-08-24T00:30:16;15.82;;;8.35;;
65033;SDS011;51601;51.356;12.458;2022-08-24T00:34:31;12.05;;;8.10;;
65033;SDS011;51601;51.356;12.458;2022-08-24T00:38:46;13.43;;;8.40;;
65033;SDS011;51601;51.356;12.458;2022-08-24T00:43:02;12.07;;;7.35;;
65033;SDS011;51601;51.356;12.458;2022-08-24T00:47:20;12.27;;;7.30;;
65033;SDS011;51601;51.356;12.458;2022-08-24T00:51:38;12.20;;;7.40;;
65033;SDS011;51601;51.356;12.458;2022-08-24T00:55:55;11.60;;;7.10;;
65033;SDS011;51601;51.356;12.458;2022-08-24T01:00:14;12.23;;;6.75;;
65033;SDS011;51601;51.356;12.458;2022-08-24T01:04:34;12.18;;;6.75;;
65033;SDS011;51601;51.356;12.458;2022-08-24T01:08:52;12.10;;;7.60;;
65033;SDS011;51601;51.356;12.458;2022-08-24T01:13:09;14.73;;;7.07;;
65033;SDS011;51601;51.356;12.458;2022-08-24T01:17:24;13.88;;;7.60;;
65033;SDS011;51601;51.356;12.458;2022-08-24T01:22:00;12.23;;;7.40;;
65033;SDS011;51601;51.356;12.458;2022-08-24T01:26:27;11.63;;;7.85;;
65033;SDS011;51601;51.356;12.458;2022-08-24T01:30:49;16.85;;;9.10;;
65033;SDS011;51601;51.356;12.458;2022-08-24T01:35:05;13.38;;;8.15;;
65033;SDS011;51601;51.356;12.458;2022-08-24T01:39:24;12.37;;;7.30;;
65033;SDS011;51601;51.356;12.458;2022-08-24T01:43:45;13.10;;;6.93;;
65033;SDS011;51601;51.356;12.458;2022-08-24T01:47:59;11.07;;;7.07;;
65033;SDS011;51601;51.356;12.458;2022-08-24T01:52:15;12.07;;;7.00;;
65033;SDS011;51601;51.356;12.458;2022-08-24T01:56:30;13.73;;;8.65;;
65033;SDS011;51601;51.356;12.458;2022-08-24T02:00:47;14.30;;;9.75;;
65033;SDS011;51601;51.356;12.458;2022-08-24T02:05:03;15.07;;;9.53;;
65033;SDS011;51601;51.356;12.458;2022-08-24T02:09:17;15.93;;;10.50;;
65033;SDS011;51601;51.356;12.458;2022-08-24T02:13:32;20.40;;;10.80;;
65033;SDS011;51601;51.356;12.458;2022-08-24T02:17:47;15.77;;;10.25;;
65033;SDS011;51601;51.356;12.458;2022-08-24T02:22:02;15.80;;;9.20;;
65033;SDS011;51601;51.356;12.458;2022-08-24T02:26:20;14.82;;;9.30;;
65033;SDS011;51601;51.356;12.458;2022-08-24T02:30:39;12.63;;;8.18;;
65033;SDS011;51601;51.356;12.458;2022-08-24T02:34:55;15.23;;;10.63;;
65033;SDS011;51601;51.356;12.458;2022-08-24T02:39:09;14.52;;;9.15;;
65033;SDS011;51601;51.356;12.458;2022-08-24T02:43:23;16.60;;;9.98;;
65033;SDS011;51601;51.356;12.458;2022-08-24T02:47:39;15.77;;;9.40;;
65033;SDS011;51601;51.356;12.458;2022-08-24T02:51:54;14.38;;;9.18;;
65033;SDS011;51601;51.356;12.458;2022-08-24T02:56:09;13.45;;;9.00;;
65033;SDS011;51601;51.356;12.458;2022-08-24T03:00:24;17.67;;;9.65;;
65033;SDS011;51601;51.356;12.458;2022-08-24T03:04:40;15.87;;;8.40;;
65033;SDS011;51601;51.356;12.458;2022-08-24T03:09:02;14.70;;;8.25;;
65033;SDS011;51601;51.356;12.458;2022-08-24T03:13:17;12.32;;;8.02;;
65033;SDS011;51601;51.356;12.458;2022-08-24T03:17:31;14.37;;;9.30;;
65033;SDS011;51601;51.356;12.458;2022-08-24T03:21:46;17.70;;;8.73;;
65033;SDS011;51601;51.356;12.458;2022-08-24T03:26:01;15.98;;;9.07;;
65033;SDS011;51601;51.356;12.458;2022-08-24T03:30:15;15.33;;;10.20;;
65033;SDS011;51601;51.356;12.458;2022-08-24T03:34:31;15.52;;;9.27;;
65033;SDS011;51601;51.356;12.458;2022-08-24T03:38:45;16.05;;;10.07;;
65033;SDS011;51601;51.356;12.458;2022-08-24T03:43:01;14.10;;;8.80;;
65033;SDS011;51601;51.356;12.458;2022-08-24T03:47:15;14.60;;;9.17;;
65033;SDS011;51601;51.356;12.458;2022-08-24T03:51:29;16.88;;;9.00;;
65033;SDS011;51601;51.356;12.458;2022-08-24T03:55:43;14.02;;;9.05;;
65033;SDS011;51601;51.356;12.458;2022-08-24T03:59:59;16.10;;;9.77;;
65033;SDS011;51601;51.356;12.458;2022-08-24T04:04:14;14.88;;;8.60;;
65033;SDS011;51601;51.356;12.458;2022-08-24T04:08:28;14.43;;;8.75;;
65033;SDS011;51601;51.356;12.458;2022-08-24T04:12:43;13.57;;;8.90;;
65033;SDS011;51601;51.356;12.458;2022-08-24T04:16:59;14.85;;;9.60;;
65033;SDS011;51601;51.356;12.458;2022-08-24T04:21:22;15.48;;;9.48;;
65033;SDS011;51601;51.356;12.458;2022-08-24T04:25:38;15.82;;;10.45;;
65033;SDS011;51601;51.356;12.458;2022-08-24T04:29:53;15.80;;;10.20;;
65033;SDS011;51601;51.356;12.458;2022-08-24T04:34:10;17.23;;;8.90;;
65033;SDS011;51601;51.356;12.458;2022-08-24T04:38:26;15.18;;;9.02;;
65033;SDS011;51601;51.356;12.458;2022-08-24T04:42:59;14.43;;;8.60;;
65033;SDS011;51601;51.356;12.458;2022-08-24T04:47:15;12.20;;;8.35;;
65033;SDS011;51601;51.356;12.458;2022-08-24T04:51:31;12.57;;;8.38;;
65033;SDS011;51601;51.356;12.458;2022-08-24T04:55:49;13.73;;;7.67;;
65033;SDS011;51601;51.356;12.458;2022-08-24T05:00:04;13.60;;;7.43;;
65033;SDS011;51601;51.356;12.458;2022-08-24T05:04:21;15.73;;;8.60;;
65033;SDS011;51601;51.356;12.458;2022-08-24T05:08:37;12.13;;;8.00;;
65033;SDS011;51601;51.356;12.458;2022-08-24T05:12:52;12.63;;;7.13;;
65033;SDS011;51601;51.356;12.458;2022-08-24T05:17:06;10.50;;;7.40;;
65033;SDS011;51601;51.356;12.458;2022-08-24T05:21:22;13.38;;;7.15;;
65033;SDS011;51601;51.356;12.458;2022-08-24T05:25:40;13.50;;;7.37;;
65033;SDS011;51601;51.356;12.458;2022-08-24T05:29:55;12.35;;;7.38;;
65033;SDS011;51601;51.356;12.458;2022-08-24T05:34:09;15.82;;;8.23;;
65033;SDS011;51601;51.356;12.458;2022-08-24T05:38:23;12.03;;;7.57;;
65033;SDS011;51601;51.356;12.458;2022-08-24T05:42:38;13.05;;;7.47;;
65033;SDS011;51601;51.356;12.458;2022-08-24T05:46:53;11.25;;;7.38;;
65033;SDS011;51601;51.356;12.458;2022-08-24T05:51:09;13.13;;;8.10;;
65033;SDS011;51601;51.356;12.458;2022-08-24T05:55:36;12.63;;;8.73;;
65033;SDS011;51601;51.356;12.458;2022-08-24T05:59:53;14.00;;;8.35;;
65033;SDS011;51601;51.356;12.458;2022-08-24T06:04:07;13.02;;;8.13;;
65033;SDS011;51601;51.356;12.458;2022-08-24T06:08:21;12.07;;;8.40;;
65033;SDS011;51601;51.356;12.458;2022-08-24T06:12:38;11.90;;;7.75;;
65033;SDS011;51601;51.356;12.458;2022-08-24T06:16:54;11.38;;;7.53;;
65033;SDS011;51601;51.356;12.458;2022-08-24T06:21:09;12.43;;;7.53;;
65033;SDS011;51601;51.356;12.458;2022-08-24T06:25:31;12.57;;;7.28;;
65033;SDS011;51601;51.356;12.458;2022-08-24T06:30:03;14.10;;;7.55;;
65033;SDS011;51601;51.356;12.458;2022-08-24T06:34:40;11.90;;;7.40;;
65033;SDS011;51601;51.356;12.458;2022-08-24T06:38:54;12.03;;;8.07;;
65033;SDS011;51601;51.356;12.458;2022-08-24T06:43:09;11.45;;;7.07;;
65033;SDS011;51601;51.356;12.458;2022-08-24T06:47:30;12.98;;;7.05;;
65033;SDS011;51601;51.356;12.458;2022-08-24T06:51:47;12.20;;;6.80;;
65033;SDS011;51601;51.356;12.458;2022-08-24T06:56:02;11.70;;;6.97;;
65033;SDS011;51601;51.356;12.458;2022-08-24T07:00:18;11.18;;;7.00;;
65033;SDS011;51601;51.356;12.458;2022-08-24T07:04:33;10.63;;;7.40;;
65033;SDS011;51601;51.356;12.458;2022-08-24T07:09:09;12.50;;;6.82;;
65033;SDS011;51601;51.356;12.458;2022-08-24T07:13:23;12.05;;;6.90;;
65033;SDS011;51601;51.356;12.458;2022-08-24T07:17:38;10.35;;;6.30;;
65033;SDS011;51601;51.356;12.458;2022-08-24T07:21:54;10.90;;;6.30;;
65033;SDS011;51601;51.356;12.458;2022-08-24T07:26:13;12.60;;;6.30;;
65033;SDS011;51601;51.356;12.458;2022-08-24T07:30:33;10.88;;;6.55;;
65033;SDS011;51601;51.356;12.458;2022-08-24T07:34:47;11.67;;;6.30;;
65033;SDS011;51601;51.356;12.458;2022-08-24T07:39:05;10.27;;;5.45;;
65033;SDS011;51601;51.356;12.458;2022-08-24T07:43:21;11.35;;;6.50;;
65033;SDS011;51601;51.356;12.458;2022-08-24T07:47:36;9.70;;;5.90;;
65033;SDS011;51601;51.356;12.458;2022-08-24T07:52:19;8.75;;;5.13;;
65033;SDS011;51601;51.356;12.458;2022-08-24T07:56:33;11.80;;;4.78;;
65033;SDS011;51601;51.356;12.458;2022-08-24T08:00:49;9.48;;;4.80;;
65033;SDS011;51601;51.356;12.458;2022-08-24T08:05:05;9.97;;;5.13;;
65033;SDS011;51601;51.356;12.458;2022-08-24T08:09:24;11.27;;;5.10;;
65033;SDS011;51601;51.356;12.458;2022-08-24T08:13:39;10.23;;;4.70;;
65033;SDS011;51601;51.356;12.458;2022-08-24T08:17:59;12.77;;;4.30;;
65033;SDS011;51601;51.356;12.458;2022-08-24T08:22:15;8.55;;;4.40;;
65033;SDS011;51601;51.356;12.458;2022-08-24T08:27:15;9.02;;;4.28;;
65033;SDS011;51601;51.356;12.458;2022-08-24T08:31:29;9.93;;;3.90;;
65033;SDS011;51601;51.356;12.458;2022-08-24T08:35:48;9.20;;;4.18;;
65033;SDS011;51601;51.356;12.458;2022-08-24T08:40:04;8.77;;;4.20;;
65033;SDS011;51601;51.356;12.458;2022-08-24T08:44:27;8.05;;;4.25;;
65033;SDS011;51601;51.356;12.458;2022-08-24T08:48:57;9.47;;;4.27;;
65033;SDS011;51601;51.356;12.458;2022-08-24T08:53:32;10.52;;;4.68;;
65033;SDS011;51601;51.356;12.458;2022-08-24T08:58:15;7.82;;;3.95;;
65033;SDS011;51601;51.356;12.458;2022-08-24T09:02:47;8.80;;;4.10;;
65033;SDS011;51601;51.356;12.458;2022-08-24T09:07:53;9.27;;;3.80;;
65033;SDS011;51601;51.356;12.458;2022-08-24T09:12:17;8.63;;;3.50;;
65033;SDS011;51601;51.356;12.458;2022-08-24T09:16:47;8.73;;;3.60;;
65033;SDS011;51601;51.356;12.458;2022-08-24T09:21:20;8.52;;;3.30;;
65033;SDS011;51601;51.356;12.458;2022-08-24T09:25:55;7.38;;;3.40;;
65033;SDS011;51601;51.356;12.458;2022-08-24T09:30:20;7.35;;;2.80;;
65033;SDS011;51601;51.356;12.458;2022-08-24T09:34:45;7.17;;;3.20;;
65033;SDS011;51601;51.356;12.458;2022-08-24T09:39:13;9.52;;;2.90;;
65033;SDS011;51601;51.356;12.458;2022-08-24T09:58:16;5.88;;;2.83;;
65033;SDS011;51601;51.356;12.458;2022-08-24T10:02:41;8.17;;;3.10;;
65033;SDS011;51601;51.356;12.458;2022-08-24T10:07:07;8.00;;;3.13;;
65033;SDS011;51601;51.356;12.458;2022-08-24T10:11:40;8.98;;;3.10;;
65033;SDS011;51601;51.356;12.458;2022-08-24T10:16:06;6.93;;;3.55;;
65033;SDS011;51601;51.356;12.458;2022-08-24T10:20:37;9.00;;;4.20;;
65033;SDS011;51601;51.356;12.458;2022-08-24T10:25:10;9.00;;;4.88;;
65033;SDS011;51601;51.356;12.458;2022-08-24T10:29:45;8.82;;;3.67;;
65033;SDS011;51601;51.356;12.458;2022-08-24T10:34:24;7.93;;;3.73;;
65033;SDS011;51601;51.356;12.458;2022-08-24T10:38:50;7.55;;;3.10;;
65033;SDS011;51601;51.356;12.458;2022-08-24T10:43:49;7.25;;;3.10;;
65033;SDS011;51601;51.356;12.458;2022-08-24T10:48:26;7.50;;;3.20;;
65033;SDS011;51601;51.356;12.458;2022-08-24T10:57:38;8.15;;;3.80;;
65033;SDS011;51601;51.356;12.458;2022-08-24T11:02:01;6.47;;;2.85;;
65033;SDS011;51601;51.356;12.458;2022-08-24T11:06:26;7.67;;;3.50;;
65033;SDS011;51601;51.356;12.458;2022-08-24T11:10:42;6.45;;;3.20;;
65033;SDS011;51601;51.356;12.458;2022-08-24T11:14:57;9.00;;;3.40;;
65033;SDS011;51601;51.356;12.458;2022-08-24T11:19:12;7.20;;;3.20;;
65033;SDS011;51601;51.356;12.458;2022-08-24T11:23:42;9.43;;;2.95;;
65033;SDS011;51601;51.356;12.458;2022-08-24T11:27:58;7.75;;;3.00;;
65033;SDS011;51601;51.356;12.458;2022-08-24T11:32:24;9.90;;;3.00;;
65033;SDS011;51601;51.356;12.458;2022-08-24T11:36:40;7.07;;;3.58;;
65033;SDS011;51601;51.356;12.458;2022-08-24T11:40:58;8.70;;;3.28;;
65033;SDS011;51601;51.356;12.458;2022-08-24T11:45:22;7.95;;;3.55;;
65033;SDS011;51601;51.356;12.458;2022-08-24T11:49:42;6.70;;;3.10;;
65033;SDS011;51601;51.356;12.458;2022-08-24T11:54:07;9.20;;;3.53;;
65033;SDS011;51601;51.356;12.458;2022-08-24T11:58:34;8.98;;;3.10;;
65033;SDS011;51601;51.356;12.458;2022-08-24T12:02:57;6.90;;;3.67;;
65033;SDS011;51601;51.356;12.458;2022-08-24T12:07:19;7.10;;;3.10;;
65033;SDS011;51601;51.356;12.458;2022-08-24T12:11:43;9.82;;;3.42;;
65033;SDS011;51601;51.356;12.458;2022-08-24T12:16:08;9.23;;;3.63;;
65033;SDS011;51601;51.356;12.458;2022-08-24T12:20:28;9.38;;;3.78;;
65033;SDS011;51601;51.356;12.458;2022-08-24T12:24:47;9.25;;;3.58;;
65033;SDS011;51601;51.356;12.458;2022-08-24T12:29:05;9.63;;;3.70;;
65033;SDS011;51601;51.356;12.458;2022-08-24T12:33:24;13.23;;;3.60;;
65033;SDS011;51601;51.356;12.458;2022-08-24T12:37:48;11.75;;;3.95;;
65033;SDS011;51601;51.356;12.458;2022-08-24T12:42:10;8.00;;;3.70;;
65033;SDS011;51601;51.356;12.458;2022-08-24T12:46:29;7.30;;;3.70;;
65033;SDS011;51601;51.356;12.458;2022-08-24T12:50:48;7.63;;;3.47;;
65033;SDS011;51601;51.356;12.458;2022-08-24T12:55:24;8.60;;;3.45;;
65033;SDS011;51601;51.356;12.458;2022-08-24T13:00:06;9.23;;;4.07;;
65033;SDS011;51601;51.356;12.458;2022-08-24T13:04:34;8.00;;;3.60;;
65033;SDS011;51601;51.356;12.458;2022-08-24T13:08:53;8.18;;;4.13;;
65033;SDS011;51601;51.356;12.458;2022-08-24T13:13:39;9.07;;;3.55;;
65033;SDS011;51601;51.356;12.458;2022-08-24T13:17:57;6.97;;;3.63;;
65033;SDS011;51601;51.356;12.458;2022-08-24T13:32:00;8.03;;;4.03;;
65033;SDS011;51601;51.356;12.458;2022-08-24T13:36:36;7.70;;;3.80;;
65033;SDS011;51601;51.356;12.458;2022-08-24T13:40:56;7.13;;;3.70;;
65033;SDS011;51601;51.356;12.458;2022-08-24T13:45:22;8.73;;;4.33;;
65033;SDS011;51601;51.356;12.458;2022-08-24T14:27:38;7.55;;;3.88;;
65033;SDS011;51601;51.356;12.458;2022-08-24T14:36:42;8.38;;;3.92;;
65033;SDS011;51601;51.356;12.458;2022-08-24T14:41:13;9.00;;;3.70;;
65033;SDS011;51601;51.356;12.458;2022-08-24T14:45:48;8.00;;;3.70;;
65033;SDS011;51601;51.356;12.458;2022-08-24T14:50:09;8.27;;;3.80;;
65033;SDS011;51601;51.356;12.458;2022-08-24T14:54:30;7.30;;;3.80;;
65033;SDS011;51601;51.356;12.458;2022-08-24T14:58:52;9.67;;;4.10;;
65033;SDS011;51601;51.356;12.458;2022-08-24T15:03:21;9.10;;;4.10;;
65033;SDS011;51601;51.356;12.458;2022-08-24T15:07:50;8.52;;;4.10;;
65033;SDS011;51601;51.356;12.458;2022-08-24T15:12:09;7.03;;;3.90;;
65033;SDS011;51601;51.356;12.458;2022-08-24T15:16:33;8.67;;;3.80;;
65033;SDS011;51601;51.356;12.458;2022-08-24T15:21:08;7.47;;;3.95;;
65033;SDS011;51601;51.356;12.458;2022-08-24T15:25:32;9.25;;;4.30;;
65033;SDS011;51601;51.356;12.458;2022-08-24T15:29:50;11.33;;;3.97;;
65033;SDS011;51601;51.356;12.458;2022-08-24T15:34:07;8.18;;;3.88;;
65033;SDS011;51601;51.356;12.458;2022-08-24T15:38:23;8.55;;;4.00;;
65033;SDS011;51601;51.356;12.458;2022-08-24T15:42:43;8.20;;;4.17;;
65033;SDS011;51601;51.356;12.458;2022-08-24T15:47:02;9.77;;;4.35;;
65033;SDS011;51601;51.356;12.458;2022-08-24T15:51:29;8.32;;;4.28;;
65033;SDS011;51601;51.356;12.458;2022-08-24T15:55:50;8.73;;;4.20;;
65033;SDS011;51601;51.356;12.458;2022-08-24T16:00:06;9.77;;;4.03;;
65033;SDS011;51601;51.356;12.458;2022-08-24T16:08:59;8.43;;;4.15;;
65033;SDS011;51601;51.356;12.458;2022-08-24T16:13:20;10.47;;;4.20;;
65033;SDS011;51601;51.356;12.458;2022-08-24T16:17:40;7.63;;;3.67;;
65033;SDS011;51601;51.356;12.458;2022-08-24T16:22:03;8.70;;;4.68;;
65033;SDS011;51601;51.356;12.458;2022-08-24T16:26:20;11.50;;;4.53;;
65033;SDS011;51601;51.356;12.458;2022-08-24T16:30:41;8.00;;;4.43;;
65033;SDS011;51601;51.356;12.458;2022-08-24T16:35:13;8.13;;;4.40;;
65033;SDS011;51601;51.356;12.458;2022-08-24T16:39:29;9.70;;;4.10;;
65033;SDS011;51601;51.356;12.458;2022-08-24T16:43:44;8.40;;;3.93;;
65033;SDS011;51601;51.356;12.458;2022-08-24T16:48:00;10.55;;;4.30;;
65033;SDS011;51601;51.356;12.458;2022-08-24T16:52:14;8.20;;;4.20;;
65033;SDS011;51601;51.356;12.458;2022-08-24T16:56:28;10.77;;;4.10;;
65033;SDS011;51601;51.356;12.458;2022-08-24T17:00:42;8.38;;;4.20;;
65033;SDS011;51601;51.356;12.458;2022-08-24T17:04:58;9.32;;;4.47;;
65033;SDS011;51601;51.356;12.458;2022-08-24T17:09:12;8.97;;;4.80;;
65033;SDS011;51601;51.356;12.458;2022-08-24T17:13:26;9.77;;;5.18;;
65033;SDS011;51601;51.356;12.458;2022-08-24T17:18:00;9.90;;;5.82;;
65033;SDS011;51601;51.356;12.458;2022-08-24T17:22:19;10.05;;;5.30;;
65033;SDS011;51601;51.356;12.458;2022-08-24T17:26:34;11.27;;;5.67;;
65033;SDS011;51601;51.356;12.458;2022-08-24T17:30:56;11.40;;;5.68;;
65033;SDS011;51601;51.356;12.458;2022-08-24T17:35:10;11.38;;;5.65;;
65033;SDS011;51601;51.356;12.458;2022-08-24T17:39:25;12.30;;;6.60;;
65033;SDS011;51601;51.356;12.458;2022-08-24T17:43:39;11.75;;;5.90;;
65033;SDS011;51601;51.356;12.458;2022-08-24T17:47:53;15.23;;;5.90;;
65033;SDS011;51601;51.356;12.458;2022-08-24T17:52:08;11.30;;;6.30;;
65033;SDS011;51601;51.356;12.458;2022-08-24T17:56:23;10.90;;;5.97;;
65033;SDS011;51601;51.356;12.458;2022-08-24T18:00:38;11.88;;;6.07;;
65033;SDS011;51601;51.356;12.458;2022-08-24T18:04:52;12.45;;;6.40;;
65033;SDS011;51601;51.356;12.458;2022-08-24T18:09:07;13.40;;;6.33;;
65033;SDS011;51601;51.356;12.458;2022-08-24T18:13:28;12.98;;;6.30;;
65033;SDS011;51601;51.356;12.458;2022-08-24T18:17:43;10.18;;;6.32;;
65033;SDS011;51601;51.356;12.458;2022-08-24T18:21:59;11.53;;;6.40;;
65033;SDS011;51601;51.356;12.458;2022-08-24T18:26:13;13.32;;;6.45;;
65033;SDS011;51601;51.356;12.458;2022-08-24T18:30:32;10.95;;;6.30;;
65033;SDS011;51601;51.356;12.458;2022-08-24T18:34:48;11.70;;;6.40;;
65033;SDS011;51601;51.356;12.458;2022-08-24T18:39:02;12.00;;;6.60;;
65033;SDS011;51601;51.356;12.458;2022-08-24T18:43:18;14.05;;;6.60;;
65033;SDS011;51601;51.356;12.458;2022-08-24T18:47:35;13.35;;;6.63;;
65033;SDS011;51601;51.356;12.458;2022-08-24T18:51:49;13.07;;;6.50;;
65033;SDS011;51601;51.356;12.458;2022-08-24T18:56:04;13.80;;;7.35;;
65033;SDS011;51601;51.356;12.458;2022-08-24T19:00:23;12.07;;;6.90;;
65033;SDS011;51601;51.356;12.458;2022-08-24T19:04:40;12.60;;;6.70;;
65033;SDS011;51601;51.356;12.458;2022-08-24T19:08:58;11.70;;;6.55;;
65033;SDS011;51601;51.356;12.458;2022-08-24T19:13:12;11.80;;;7.00;;
65033;SDS011;51601;51.356;12.458;2022-08-24T19:17:27;16.13;;;6.93;;
65033;SDS011;51601;51.356;12.458;2022-08-24T19:21:42;12.35;;;7.32;;
65033;SDS011;51601;51.356;12.458;2022-08-24T19:25:56;14.63;;;7.07;;
65033;SDS011;51601;51.356;12.458;2022-08-24T19:30:11;14.10;;;7.15;;
65033;SDS011;51601;51.356;12.458;2022-08-24T19:34:26;13.20;;;7.37;;
65033;SDS011;51601;51.356;12.458;2022-08-24T19:38:42;13.02;;;7.47;;
65033;SDS011;51601;51.356;12.458;2022-08-24T19:42:56;16.15;;;7.78;;
65033;SDS011;51601;51.356;12.458;2022-08-24T19:47:10;16.53;;;8.10;;
65033;SDS011;51601;51.356;12.458;2022-08-24T19:51:24;14.10;;;7.80;;
65033;SDS011;51601;51.356;12.458;2022-08-24T19:55:40;16.95;;;8.07;;
65033;SDS011;51601;51.356;12.458;2022-08-24T19:59:53;12.63;;;7.70;;
65033;SDS011;51601;51.356;12.458;2022-08-24T20:04:10;13.00;;;7.75;;
65033;SDS011;51601;51.356;12.458;2022-08-24T20:08:24;13.60;;;7.55;;
65033;SDS011;51601;51.356;12.458;2022-08-24T20:12:39;14.50;;;7.60;;
65033;SDS011;51601;51.356;12.458;2022-08-24T20:16:55;16.80;;;8.80;;
65033;SDS011;51601;51.356;12.458;2022-08-24T20:21:09;16.58;;;8.35;;
65033;SDS011;51601;51.356;12.458;2022-08-24T20:25:23;16.10;;;8.43;;
65033;SDS011;51601;51.356;12.458;2022-08-24T20:29:38;14.17;;;8.47;;
65033;SDS011;51601;51.356;12.458;2022-08-24T20:33:53;17.17;;;8.70;;
65033;SDS011;51601;51.356;12.458;2022-08-24T20:38:08;18.25;;;9.23;;
65033;SDS011;51601;51.356;12.458;2022-08-24T20:42:24;14.67;;;8.57;;
65033;SDS011;51601;51.356;12.458;2022-08-24T20:46:41;16.50;;;9.20;;
65033;SDS011;51601;51.356;12.458;2022-08-24T20:50:58;14.88;;;9.05;;
65033;SDS011;51601;51.356;12.458;2022-08-24T20:55:12;15.02;;;8.60;;
65033;SDS011;51601;51.356;12.458;2022-08-24T20:59:26;16.30;;;8.50;;
65033;SDS011;51601;51.356;12.458;2022-08-24T21:03:42;15.70;;;8.63;;
65033;SDS011;51601;51.356;12.458;2022-08-24T21:07:56;15.20;;;8.23;;
65033;SDS011;51601;51.356;12.458;2022-08-24T21:12:10;16.37;;;8.87;;
65033;SDS011;51601;51.356;12.458;2022-08-24T21:16:27;14.27;;;8.45;;
65033;SDS011;51601;51.356;12.458;2022-08-24T21:20:43;15.52;;;8.40;;
65033;SDS011;51601;51.356;12.458;2022-08-24T21:25:15;11.37;;;8.13;;
65033;SDS011;51601;51.356;12.458;2022-08-24T21:29:30;13.25;;;8.88;;
65033;SDS011;51601;51.356;12.458;2022-08-24T21:33:44;14.73;;;9.10;;
65033;SDS011;51601;51.356;12.458;2022-08-24T21:38:17;15.10;;;8.23;;
65033;SDS011;51601;51.356;12.458;2022-08-24T21:42:31;14.60;;;8.67;;
65033;SDS011;51601;51.356;12.458;2022-08-24T21:46:47;14.18;;;8.93;;
65033;SDS011;51601;51.356;12.458;2022-08-24T21:51:03;17.65;;;9.60;;
65033;SDS011;51601;51.356;12.458;2022-08-24T21:55:18;17.67;;;9.67;;
65033;SDS011;51601;51.356;12.458;2022-08-24T21:59:32;17.10;;;9.75;;
65033;SDS011;51601;51.356;12.458;2022-08-24T22:03:46;18.75;;;10.27;;
65033;SDS011;51601;51.356;12.458;2022-08-24T22:08:01;17.47;;;9.77;;
65033;SDS011;51601;51.356;12.458;2022-08-24T22:12:16;20.90;;;9.73;;
65033;SDS011;51601;51.356;12.458;2022-08-24T22:16:30;18.23;;;10.23;;
65033;SDS011;51601;51.356;12.458;2022-08-24T22:20:48;18.92;;;10.35;;
65033;SDS011;51601;51.356;12.458;2022-08-24T22:25:03;17.30;;;10.30;;
65033;SDS011;51601;51.356;12.458;2022-08-24T22:29:18;20.17;;;11.38;;
65033;SDS011;51601;51.356;12.458;2022-08-24T22:33:33;19.73;;;10.43;;
65033;SDS011;51601;51.356;12.458;2022-08-24T22:37:47;18.70;;;10.57;;
65033;SDS011;51601;51.356;12.458;2022-08-24T22:42:01;17.50;;;10.18;;
65033;SDS011;51601;51.356;12.458;2022-08-24T22:46:17;18.08;;;10.55;;
65033;SDS011;51601;51.356;12.458;2022-08-24T22:50:32;16.33;;;10.57;;
65033;SDS011;51601;51.356;12.458;2022-08-24T22:54:46;15.77;;;10.80;;
65033;SDS011;51601;51.356;12.458;2022-08-24T22:59:00;17.17;;;10.50;;
65033;SDS011;51601;51.356;12.458;2022-08-24T23:03:17;17.10;;;11.27;;
65033;SDS011;51601;51.356;12.458;2022-08-24T23:07:30;16.77;;;10.93;;
65033;SDS011;51601;51.356;12.458;2022-08-24T23:11:46;18.90;;;11.55;;
65033;SDS011;51601;51.356;12.458;2022-08-24T23:16:02;18.63;;;11.43;;
65033;SDS011;51601;51.356;12.458;2022-08-24T23:20:20;20.87;;;11.80;;
65033;SDS011;51601;51.356;12.458;2022-08-24T23:24:34;20.35;;;12.00;;
65033;SDS011;51601;51.356;12.458;2022-08-24T23:28:48;17.80;;;11.45;;
65033;SDS011;51601;51.356;12.458;2022-08-24T23:33:02;18.97;;;11.53;;
65033;SDS011;51601;51.356;12.458;2022-08-24T23:37:17;23.52;;;12.63;;
65033;SDS011;51601;51.356;12.458;2022-08-24T23:41:33;20.95;;;12.45;;
65033;SDS011;51601;51.356;12.458;2022-08-24T23:45:50;18.60;;;12.02;;
65033;SDS011;51601;51.356;12.458;2022-08-24T23:50:06;19.30;;;11.97;;
65033;SDS011;51601;51.356;12.458;2022-08-24T23:54:23;19.65;;;12.68;;
65033;SDS011;51601;51.356;12.458;2022-08-24T23:58:38;21.50;;;12.88;;
